Kalamazoo, MI (49001)

11:45 AM EST on February 13, 2016 (GMT -0500)
Lawndale Ave | | Change Station
CLOSE
Current Station
Personal Weather Station
Location: Kalamazoo, MI
Elevation: 801 ft
Nearby Weather Stations

Elev 801 ft 42.28 °N, 85.48 °W | Updated 30 seconds ago

Overcast
Overcast
15.1 °F
Feels Like 7 °F
N
5.6
Wind Variable Wind from West
Gusts 7.4 mph

Today
High -- | Low -- °F
--% Chance of Precip.
Yesterday
High -- | Low -- °F
Precip. -- in
Pressure 30.46 in
Visibility 0.2 miles
Clouds Mostly Cloudy 1400 ft
Overcast 2300 ft
Windchill 7 °F
Dew Point -1 °F
Humidity 49%
Rainfall 0.00 in
Snow Depth Not available.
7:41 AM 6:11 PM
Waxing Crescent, 32% visible
SPECI KAZO 131631Z 34009KT 1/4SM R35/3000VP6000FT +SN BKN014 OVC023 M11/M15 A3046 RMK AO2 P0000 T11061150
Pressure 30.46 in
Visibility 0.2 miles
Clouds Mostly Cloudy 1400 ft
Overcast 2300 ft
Windchill 7 °F
Dew Point -1 °F
Humidity 49%
Rainfall 0.00 in
Snow Depth Not available.
7:41 AM 6:11 PM
Waxing Crescent, 32% visible
SPECI KAZO 131631Z 34009KT 1/4SM R35/3000VP6000FT +SN BKN014 OVC023 M11/M15 A3046 RMK AO2 P0000 T11061150

10-Day Weather Forecast

Almanac

Astronomy

Feb. 13, 2016 Rise Set
Actual Time
Civil Twilight
Nautical Twilight
Astronomical Twilight
Moon
Length of Visible Light
Length of Day
Tomorrow will be .
, % of the Moon is Illuminated

Today's Extremes

State Highs State Lows

Community

WunderPhotos

Upload Photos

1,892,604 photos uploaded!

WunderBlog® & News

Nearby

Air Quality

  Air Quality AQ Index Pollutant
Not available.

Snow Depth

Station Depth Elevation

Earthquake Activity

City Distance Mag. Time & Date
Minimum magnitude displayed is 2.5.

Coastal Water Temperatures

Place Temperature

Stations

Nearby Weather Stations

Station Location Temp. Windchill Dew Point Humidity Wind Precip. Elev Updated Type
                   

Watches & Warnings

There are currently no watches in effect.